sensor_id;sensor_type;location;lat;lon;timestamp;pressure;altitude;pressure_sealevel;temperature;humidity
7433;BME280;32233;49.500;7.764;2023-04-06T00:00:08;98727.31;;;-1.85;82.39
7433;BME280;32233;49.500;7.764;2023-04-06T00:02:36;98719.31;;;-1.82;84.29
7433;BME280;32233;49.500;7.764;2023-04-06T00:05:03;98717.91;;;-1.86;84.35
7433;BME280;32233;49.500;7.764;2023-04-06T00:07:29;98711.56;;;-1.82;86.14
7433;BME280;32233;49.500;7.764;2023-04-06T00:09:56;98710.38;;;-1.44;84.19
7433;BME280;32233;49.500;7.764;2023-04-06T00:12:23;98708.72;;;-1.45;83.73
7433;BME280;32233;49.500;7.764;2023-04-06T00:14:50;98711.69;;;-1.61;81.78
7433;BME280;32233;49.500;7.764;2023-04-06T00:17:17;98714.03;;;-1.46;80.36
7433;BME280;32233;49.500;7.764;2023-04-06T00:19:43;98711.44;;;-1.46;81.13
7433;BME280;32233;49.500;7.764;2023-04-06T00:22:10;98705.22;;;-1.55;80.95
7433;BME280;32233;49.500;7.764;2023-04-06T00:24:37;98700.84;;;-1.55;82.42
7433;BME280;32233;49.500;7.764;2023-04-06T00:27:03;98699.91;;;-1.54;81.33
7433;BME280;32233;49.500;7.764;2023-04-06T00:29:30;98692.00;;;-1.75;81.79
7433;BME280;32233;49.500;7.764;2023-04-06T00:31:56;98697.88;;;-1.95;84.54
7433;BME280;32233;49.500;7.764;2023-04-06T00:34:23;98700.91;;;-2.01;85.35
7433;BME280;32233;49.500;7.764;2023-04-06T00:36:49;98699.97;;;-2.11;84.03
7433;BME280;32233;49.500;7.764;2023-04-06T00:39:16;98692.06;;;-2.21;85.88
7433;BME280;32233;49.500;7.764;2023-04-06T00:41:49;98697.41;;;-1.89;85.43
7433;BME280;32233;49.500;7.764;2023-04-06T00:44:17;98694.13;;;-1.91;84.96
7433;BME280;32233;49.500;7.764;2023-04-06T00:46:43;98695.41;;;-2.08;86.97
7433;BME280;32233;49.500;7.764;2023-04-06T00:49:10;98689.75;;;-2.02;86.23
7433;BME280;32233;49.500;7.764;2023-04-06T00:51:37;98688.47;;;-1.96;87.54
7433;BME280;32233;49.500;7.764;2023-04-06T00:54:04;98688.56;;;-1.64;85.61
7433;BME280;32233;49.500;7.764;2023-04-06T00:56:32;98684.25;;;-1.63;84.19
7433;BME280;32233;49.500;7.764;2023-04-06T00:58:59;98681.06;;;-1.67;83.64
7433;BME280;32233;49.500;7.764;2023-04-06T01:01:26;98676.19;;;-1.60;83.17
7433;BME280;32233;49.500;7.764;2023-04-06T01:03:57;98677.38;;;-1.64;83.49
7433;BME280;32233;49.500;7.764;2023-04-06T01:06:23;98680.69;;;-1.62;83.07
7433;BME280;32233;49.500;7.764;2023-04-06T01:09:00;98677.63;;;-1.56;82.97
7433;BME280;32233;49.500;7.764;2023-04-06T01:11:28;98678.78;;;-1.60;82.50
7433;BME280;32233;49.500;7.764;2023-04-06T01:13:55;98673.84;;;-1.86;83.88
7433;BME280;32233;49.500;7.764;2023-04-06T01:16:26;98679.94;;;-2.32;86.23
7433;BME280;32233;49.500;7.764;2023-04-06T01:19:12;98672.41;;;-2.23;86.70
7433;BME280;32233;49.500;7.764;2023-04-06T01:21:46;98673.69;;;-2.29;88.28
7433;BME280;32233;49.500;7.764;2023-04-06T01:24:36;98670.56;;;-2.45;89.18
7433;BME280;32233;49.500;7.764;2023-04-06T01:27:29;98670.31;;;-2.07;88.15
7433;BME280;32233;49.500;7.764;2023-04-06T01:30:11;98667.97;;;-1.88;85.22
7433;BME280;32233;49.500;7.764;2023-04-06T01:32:45;98662.81;;;-1.88;84.01
7433;BME280;32233;49.500;7.764;2023-04-06T01:35:16;98664.38;;;-2.32;87.00
7433;BME280;32233;49.500;7.764;2023-04-06T01:37:53;98664.22;;;-2.41;87.76
7433;BME280;32233;49.500;7.764;2023-04-06T01:40:26;98668.84;;;-2.34;88.78
7433;BME280;32233;49.500;7.764;2023-04-06T01:42:53;98666.09;;;-2.55;86.46
7433;BME280;32233;49.500;7.764;2023-04-06T01:45:28;98656.19;;;-2.61;88.17
7433;BME280;32233;49.500;7.764;2023-04-06T01:48:02;98654.66;;;-2.63;89.41
7433;BME280;32233;49.500;7.764;2023-04-06T01:50:28;98656.19;;;-2.61;89.92
7433;BME280;32233;49.500;7.764;2023-04-06T01:52:55;98656.63;;;-2.67;91.72
7433;BME280;32233;49.500;7.764;2023-04-06T01:55:23;98649.94;;;-2.69;92.95
7433;BME280;32233;49.500;7.764;2023-04-06T01:58:14;98650.06;;;-2.60;90.35
7433;BME280;32233;49.500;7.764;2023-04-06T02:00:41;98646.97;;;-2.30;88.32
7433;BME280;32233;49.500;7.764;2023-04-06T02:03:08;98654.16;;;-2.22;86.34
7433;BME280;32233;49.500;7.764;2023-04-06T02:05:35;98648.88;;;-2.09;86.15
7433;BME280;32233;49.500;7.764;2023-04-06T02:08:15;98651.41;;;-2.43;86.70
7433;BME280;32233;49.500;7.764;2023-04-06T02:10:42;98651.69;;;-2.70;87.99
7433;BME280;32233;49.500;7.764;2023-04-06T02:13:18;98653.78;;;-2.75;88.21
7433;BME280;32233;49.500;7.764;2023-04-06T02:15:49;98650.97;;;-2.72;88.22
7433;BME280;32233;49.500;7.764;2023-04-06T02:18:15;98650.19;;;-2.61;88.70
7433;BME280;32233;49.500;7.764;2023-04-06T02:20:44;98646.25;;;-2.32;87.29
7433;BME280;32233;49.500;7.764;2023-04-06T02:23:12;98650.75;;;-2.22;86.18
7433;BME280;32233;49.500;7.764;2023-04-06T02:25:38;98643.59;;;-2.08;85.78
7433;BME280;32233;49.500;7.764;2023-04-06T02:28:05;98644.13;;;-2.38;86.55
7433;BME280;32233;49.500;7.764;2023-04-06T02:30:32;98649.22;;;-2.71;88.18
7433;BME280;32233;49.500;7.764;2023-04-06T02:33:02;98647.38;;;-2.93;90.34
7433;BME280;32233;49.500;7.764;2023-04-06T02:35:37;98647.66;;;-3.09;90.61
7433;BME280;32233;49.500;7.764;2023-04-06T02:38:04;98644.25;;;-3.10;91.37
7433;BME280;32233;49.500;7.764;2023-04-06T02:40:30;98637.09;;;-3.06;92.29
7433;BME280;32233;49.500;7.764;2023-04-06T02:43:03;98644.19;;;-3.21;92.35
7433;BME280;32233;49.500;7.764;2023-04-06T02:45:31;98643.72;;;-3.15;92.65
7433;BME280;32233;49.500;7.764;2023-04-06T02:47:59;98640.22;;;-3.14;91.83
7433;BME280;32233;49.500;7.764;2023-04-06T02:50:26;98638.00;;;-3.07;92.75
7433;BME280;32233;49.500;7.764;2023-04-06T02:52:58;98635.88;;;-3.13;94.79
7433;BME280;32233;49.500;7.764;2023-04-06T02:55:25;98629.81;;;-3.01;92.10
7433;BME280;32233;49.500;7.764;2023-04-06T02:57:51;98635.69;;;-2.99;93.39
7433;BME280;32233;49.500;7.764;2023-04-06T03:00:22;98639.00;;;-2.62;91.09
7433;BME280;32233;49.500;7.764;2023-04-06T03:02:48;98635.13;;;-2.67;90.11
7433;BME280;32233;49.500;7.764;2023-04-06T03:05:16;98627.56;;;-2.82;91.24
7433;BME280;32233;49.500;7.764;2023-04-06T03:07:45;98625.75;;;-3.16;92.67
7433;BME280;32233;49.500;7.764;2023-04-06T03:10:34;98632.91;;;-2.96;92.93
7433;BME280;32233;49.500;7.764;2023-04-06T03:13:01;98632.59;;;-2.80;91.40
7433;BME280;32233;49.500;7.764;2023-04-06T03:15:56;98636.31;;;-2.60;89.43
7433;BME280;32233;49.500;7.764;2023-04-06T03:18:24;98623.94;;;-2.68;89.08
7433;BME280;32233;49.500;7.764;2023-04-06T03:20:52;98630.91;;;-2.92;90.08
7433;BME280;32233;49.500;7.764;2023-04-06T03:23:28;98627.53;;;-3.17;91.64
7433;BME280;32233;49.500;7.764;2023-04-06T03:25:58;98629.88;;;-2.90;92.43
7433;BME280;32233;49.500;7.764;2023-04-06T03:28:24;98633.91;;;-2.75;91.09
7433;BME280;32233;49.500;7.764;2023-04-06T03:31:01;98630.53;;;-2.64;89.77
7433;BME280;32233;49.500;7.764;2023-04-06T03:33:44;98627.56;;;-2.70;89.29
7433;BME280;32233;49.500;7.764;2023-04-06T03:36:18;98625.63;;;-2.91;91.52
7433;BME280;32233;49.500;7.764;2023-04-06T03:38:45;98631.84;;;-2.93;91.92
7433;BME280;32233;49.500;7.764;2023-04-06T03:41:13;98643.56;;;-2.77;91.79
7433;BME280;32233;49.500;7.764;2023-04-06T03:43:44;98639.91;;;-2.74;90.79
7433;BME280;32233;49.500;7.764;2023-04-06T03:46:11;98637.00;;;-2.69;90.32
7433;BME280;32233;49.500;7.764;2023-04-06T03:48:37;98637.22;;;-2.72;89.92
7433;BME280;32233;49.500;7.764;2023-04-06T03:51:05;98640.53;;;-2.94;90.56
7433;BME280;32233;49.500;7.764;2023-04-06T03:53:32;98633.84;;;-3.21;93.60
7433;BME280;32233;49.500;7.764;2023-04-06T03:55:58;98636.63;;;-3.00;92.61
7433;BME280;32233;49.500;7.764;2023-04-06T03:58:26;98646.69;;;-2.84;90.74
7433;BME280;32233;49.500;7.764;2023-04-06T04:00:53;98648.00;;;-2.79;91.02
7433;BME280;32233;49.500;7.764;2023-04-06T04:03:19;98646.88;;;-2.99;91.22
7433;BME280;32233;49.500;7.764;2023-04-06T04:05:47;98653.75;;;-3.34;92.66
7433;BME280;32233;49.500;7.764;2023-04-06T04:08:14;98653.34;;;-3.41;93.22
7433;BME280;32233;49.500;7.764;2023-04-06T04:10:41;98655.78;;;-3.51;94.30
7433;BME280;32233;49.500;7.764;2023-04-06T04:13:07;98659.59;;;-3.56;95.88
7433;BME280;32233;49.500;7.764;2023-04-06T04:15:34;98666.53;;;-3.57;94.52
7433;BME280;32233;49.500;7.764;2023-04-06T04:18:01;98663.03;;;-3.32;94.70
7433;BME280;32233;49.500;7.764;2023-04-06T04:20:27;98664.13;;;-3.10;93.16
7433;BME280;32233;49.500;7.764;2023-04-06T04:22:54;98675.63;;;-3.51;96.14
7433;BME280;32233;49.500;7.764;2023-04-06T04:25:22;98677.47;;;-3.53;94.97
7433;BME280;32233;49.500;7.764;2023-04-06T04:27:49;98663.84;;;-3.55;95.47
7433;BME280;32233;49.500;7.764;2023-04-06T04:30:18;98666.44;;;-3.55;95.25
7433;BME280;32233;49.500;7.764;2023-04-06T04:32:45;98669.03;;;-3.55;95.96
7433;BME280;32233;49.500;7.764;2023-04-06T04:35:12;98668.72;;;-3.27;93.93
7433;BME280;32233;49.500;7.764;2023-04-06T04:37:41;98665.28;;;-3.14;93.94
7433;BME280;32233;49.500;7.764;2023-04-06T04:40:09;98669.31;;;-3.23;93.17
7433;BME280;32233;49.500;7.764;2023-04-06T04:42:47;98666.03;;;-3.01;92.27
7433;BME280;32233;49.500;7.764;2023-04-06T04:45:21;98674.63;;;-3.01;91.84
7433;BME280;32233;49.500;7.764;2023-04-06T04:47:48;98673.34;;;-2.95;91.16
7433;BME280;32233;49.500;7.764;2023-04-06T04:50:17;98669.38;;;-2.88;90.36
7433;BME280;32233;49.500;7.764;2023-04-06T04:52:46;98668.91;;;-2.93;91.17
7433;BME280;32233;49.500;7.764;2023-04-06T04:55:16;98664.53;;;-2.92;89.86
7433;BME280;32233;49.500;7.764;2023-04-06T04:57:46;98674.81;;;-3.04;91.27
7433;BME280;32233;49.500;7.764;2023-04-06T05:00:13;98669.72;;;-3.16;92.62
7433;BME280;32233;49.500;7.764;2023-04-06T05:02:42;98664.69;;;-3.07;92.56
7433;BME280;32233;49.500;7.764;2023-04-06T05:05:30;98672.16;;;-3.02;91.77
7433;BME280;32233;49.500;7.764;2023-04-06T05:07:57;98671.97;;;-2.88;90.53
7433;BME280;32233;49.500;7.764;2023-04-06T05:10:50;98668.91;;;-2.93;89.80
7433;BME280;32233;49.500;7.764;2023-04-06T05:13:18;98668.00;;;-2.81;89.77
7433;BME280;32233;49.500;7.764;2023-04-06T05:15:47;98668.53;;;-2.64;88.58
7433;BME280;32233;49.500;7.764;2023-04-06T05:18:22;98676.09;;;-2.61;88.58
7433;BME280;32233;49.500;7.764;2023-04-06T05:20:48;98673.72;;;-2.64;88.51
7433;BME280;32233;49.500;7.764;2023-04-06T05:23:16;98674.59;;;-2.77;88.93
7433;BME280;32233;49.500;7.764;2023-04-06T05:25:43;98679.56;;;-2.73;89.08
7433;BME280;32233;49.500;7.764;2023-04-06T05:28:17;98676.19;;;-2.87;90.29
7433;BME280;32233;49.500;7.764;2023-04-06T05:30:44;98672.53;;;-2.95;91.30
7433;BME280;32233;49.500;7.764;2023-04-06T05:33:13;98671.69;;;-2.96;89.86
7433;BME280;32233;49.500;7.764;2023-04-06T05:35:55;98682.69;;;-2.57;88.26
7433;BME280;32233;49.500;7.764;2023-04-06T05:38:22;98674.44;;;-1.82;83.81
7433;BME280;32233;49.500;7.764;2023-04-06T05:40:51;98674.22;;;-0.70;77.60
7433;BME280;32233;49.500;7.764;2023-04-06T05:43:22;98675.69;;;0.37;71.92
7433;BME280;32233;49.500;7.764;2023-04-06T05:45:53;98669.69;;;0.87;67.86
7433;BME280;32233;49.500;7.764;2023-04-06T05:48:19;98682.63;;;0.27;68.66
7433;BME280;32233;49.500;7.764;2023-04-06T05:50:49;98679.16;;;0.47;68.59
7433;BME280;32233;49.500;7.764;2023-04-06T05:53:25;98676.53;;;1.85;63.85
7433;BME280;32233;49.500;7.764;2023-04-06T05:55:56;98674.03;;;1.93;62.49
7433;BME280;32233;49.500;7.764;2023-04-06T05:58:22;98685.47;;;1.34;63.10
7433;BME280;32233;49.500;7.764;2023-04-06T06:00:59;98682.25;;;1.98;62.61
7433;BME280;32233;49.500;7.764;2023-04-06T06:03:33;98683.66;;;1.92;62.03
7433;BME280;32233;49.500;7.764;2023-04-06T06:06:00;98681.34;;;1.21;64.97
7433;BME280;32233;49.500;7.764;2023-04-06T06:08:35;98679.03;;;1.47;64.98
7433;BME280;32233;49.500;7.764;2023-04-06T06:11:08;98685.88;;;1.19;66.30
7433;BME280;32233;49.500;7.764;2023-04-06T06:13:34;98682.72;;;1.74;63.41
7433;BME280;32233;49.500;7.764;2023-04-06T06:16:01;98678.84;;;1.97;63.12
7433;BME280;32233;49.500;7.764;2023-04-06T06:18:34;98676.34;;;2.98;59.54
7433;BME280;32233;49.500;7.764;2023-04-06T06:21:00;98667.41;;;4.06;56.64
7433;BME280;32233;49.500;7.764;2023-04-06T06:23:27;98666.34;;;4.51;53.96
7433;BME280;32233;49.500;7.764;2023-04-06T06:25:53;98666.94;;;4.79;52.92
7433;BME280;32233;49.500;7.764;2023-04-06T06:28:22;98679.75;;;3.70;56.17
7433;BME280;32233;49.500;7.764;2023-04-06T06:30:49;98666.16;;;4.44;54.31
7433;BME280;32233;49.500;7.764;2023-04-06T06:33:20;98665.56;;;5.17;52.19
7433;BME280;32233;49.500;7.764;2023-04-06T06:35:49;98671.63;;;5.34;51.27
7433;BME280;32233;49.500;7.764;2023-04-06T06:38:16;98679.16;;;4.28;53.58
7433;BME280;32233;49.500;7.764;2023-04-06T06:40:45;98666.19;;;5.03;52.49
7433;BME280;32233;49.500;7.764;2023-04-06T06:43:12;98668.56;;;6.04;49.44
7433;BME280;32233;49.500;7.764;2023-04-06T06:45:49;98669.72;;;7.19;46.99
7433;BME280;32233;49.500;7.764;2023-04-06T06:48:16;98671.34;;;5.94;49.21
7433;BME280;32233;49.500;7.764;2023-04-06T06:50:42;98667.63;;;6.84;47.74
7433;BME280;32233;49.500;7.764;2023-04-06T06:53:12;98668.19;;;6.71;46.86
7433;BME280;32233;49.500;7.764;2023-04-06T06:55:38;98665.47;;;6.48;48.54
7433;BME280;32233;49.500;7.764;2023-04-06T06:58:05;98661.47;;;7.68;45.89
7433;BME280;32233;49.500;7.764;2023-04-06T07:00:33;98662.06;;;7.93;44.52
7433;BME280;32233;49.500;7.764;2023-04-06T07:02:59;98654.22;;;8.67;43.27
7433;BME280;32233;49.500;7.764;2023-04-06T07:05:26;98663.56;;;8.26;43.62
7433;BME280;32233;49.500;7.764;2023-04-06T07:07:56;98660.03;;;8.78;43.22
7433;BME280;32233;49.500;7.764;2023-04-06T07:10:24;98657.69;;;9.90;40.14
7433;BME280;32233;49.500;7.764;2023-04-06T07:12:51;98660.66;;;10.36;38.72
7433;BME280;32233;49.500;7.764;2023-04-06T07:15:18;98651.84;;;10.57;38.73
7433;BME280;32233;49.500;7.764;2023-04-06T07:17:44;98649.94;;;10.93;38.14
7433;BME280;32233;49.500;7.764;2023-04-06T07:20:12;98658.38;;;10.68;38.45
7433;BME280;32233;49.500;7.764;2023-04-06T07:22:41;98657.31;;;10.56;38.62
7433;BME280;32233;49.500;7.764;2023-04-06T07:25:08;98659.59;;;10.03;39.79
7433;BME280;32233;49.500;7.764;2023-04-06T07:27:35;98647.06;;;10.87;38.87
7433;BME280;32233;49.500;7.764;2023-04-06T07:30:02;98650.47;;;11.49;37.13
7433;BME280;32233;49.500;7.764;2023-04-06T07:32:29;98645.50;;;10.52;38.20
7433;BME280;32233;49.500;7.764;2023-04-06T07:34:57;98650.19;;;10.50;39.05
7433;BME280;32233;49.500;7.764;2023-04-06T07:37:24;98646.41;;;10.31;40.26
7433;BME280;32233;49.500;7.764;2023-04-06T07:39:51;98645.72;;;10.57;39.49
7433;BME280;32233;49.500;7.764;2023-04-06T07:42:18;98651.94;;;11.92;37.38
7433;BME280;32233;49.500;7.764;2023-04-06T07:44:44;98644.69;;;10.51;38.39
7433;BME280;32233;49.500;7.764;2023-04-06T07:47:11;98650.28;;;10.07;39.81
7433;BME280;32233;49.500;7.764;2023-04-06T07:49:38;98650.78;;;11.00;38.84
7433;BME280;32233;49.500;7.764;2023-04-06T07:52:05;98646.09;;;11.02;38.56
7433;BME280;32233;49.500;7.764;2023-04-06T07:54:32;98642.53;;;12.29;36.03
7433;BME280;32233;49.500;7.764;2023-04-06T07:56:58;98639.22;;;12.98;35.51
7433;BME280;32233;49.500;7.764;2023-04-06T07:59:25;98641.72;;;13.31;35.41
7433;BME280;32233;49.500;7.764;2023-04-06T08:01:52;98641.75;;;14.06;31.75
7433;BME280;32233;49.500;7.764;2023-04-06T08:04:18;98642.34;;;15.00;30.29
7433;BME280;32233;49.500;7.764;2023-04-06T08:06:45;98638.38;;;14.91;30.20
7433;BME280;32233;49.500;7.764;2023-04-06T08:09:11;98640.69;;;14.69;30.45
7433;BME280;32233;49.500;7.764;2023-04-06T08:11:38;98643.28;;;15.06;29.92
7433;BME280;32233;49.500;7.764;2023-04-06T08:14:04;98641.19;;;14.96;29.03
7433;BME280;32233;49.500;7.764;2023-04-06T08:16:31;98642.13;;;14.10;30.43
7433;BME280;32233;49.500;7.764;2023-04-06T08:18:58;98642.16;;;14.03;30.67
7433;BME280;32233;49.500;7.764;2023-04-06T08:21:24;98641.97;;;14.67;31.29
7433;BME280;32233;49.500;7.764;2023-04-06T08:23:51;98644.91;;;14.77;30.93
7433;BME280;32233;49.500;7.764;2023-04-06T08:26:17;98640.66;;;14.32;30.18
7433;BME280;32233;49.500;7.764;2023-04-06T08:28:44;98638.88;;;13.26;32.50
7433;BME280;32233;49.500;7.764;2023-04-06T08:31:12;98643.50;;;13.69;32.53
7433;BME280;32233;49.500;7.764;2023-04-06T08:33:38;98643.75;;;14.54;31.72
7433;BME280;32233;49.500;7.764;2023-04-06T08:36:10;98634.31;;;13.65;32.22
7433;BME280;32233;49.500;7.764;2023-04-06T08:38:37;98635.91;;;14.16;32.15
7433;BME280;32233;49.500;7.764;2023-04-06T08:41:10;98638.38;;;13.04;34.96
7433;BME280;32233;49.500;7.764;2023-04-06T08:43:47;98632.47;;;13.91;32.59
7433;BME280;32233;49.500;7.764;2023-04-06T08:46:14;98631.19;;;14.36;31.99
7433;BME280;32233;49.500;7.764;2023-04-06T08:48:42;98632.63;;;14.39;30.99
7433;BME280;32233;49.500;7.764;2023-04-06T08:51:10;98629.59;;;14.35;31.58
7433;BME280;32233;49.500;7.764;2023-04-06T08:53:37;98632.16;;;14.24;31.84
7433;BME280;32233;49.500;7.764;2023-04-06T08:56:04;98629.53;;;13.99;32.06
7433;BME280;32233;49.500;7.764;2023-04-06T08:58:39;98631.31;;;15.57;31.22
7433;BME280;32233;49.500;7.764;2023-04-06T09:01:08;98633.59;;;15.42;31.25
7433;BME280;32233;49.500;7.764;2023-04-06T09:03:39;98625.41;;;14.65;31.35
7433;BME280;32233;49.500;7.764;2023-04-06T09:06:07;98625.59;;;14.81;32.29
7433;BME280;32233;49.500;7.764;2023-04-06T09:08:36;98635.97;;;14.53;32.03
7433;BME280;32233;49.500;7.764;2023-04-06T09:11:03;98628.34;;;13.45;32.71
7433;BME280;32233;49.500;7.764;2023-04-06T09:13:30;98627.59;;;13.62;32.76
7433;BME280;32233;49.500;7.764;2023-04-06T09:16:04;98625.94;;;13.68;34.00
7433;BME280;32233;49.500;7.764;2023-04-06T09:18:33;98616.72;;;14.88;31.65
7433;BME280;32233;49.500;7.764;2023-04-06T09:21:01;98618.09;;;14.78;32.23
7433;BME280;32233;49.500;7.764;2023-04-06T09:23:28;98621.09;;;15.12;29.79
7433;BME280;32233;49.500;7.764;2023-04-06T09:26:15;98614.63;;;14.78;30.20
7433;BME280;32233;49.500;7.764;2023-04-06T09:31:09;98617.38;;;15.97;29.82
7433;BME280;32233;49.500;7.764;2023-04-06T09:33:41;98612.13;;;15.67;28.96
7433;BME280;32233;49.500;7.764;2023-04-06T09:36:08;98610.78;;;15.46;29.22
7433;BME280;32233;49.500;7.764;2023-04-06T09:38:39;98614.84;;;15.06;29.14
7433;BME280;32233;49.500;7.764;2023-04-06T09:41:06;98607.00;;;15.11;29.61
7433;BME280;32233;49.500;7.764;2023-04-06T09:43:33;98605.56;;;15.39;28.54
7433;BME280;32233;49.500;7.764;2023-04-06T09:46:00;98608.44;;;16.03;28.63
7433;BME280;32233;49.500;7.764;2023-04-06T09:48:31;98607.44;;;16.44;27.45
7433;BME280;32233;49.500;7.764;2023-04-06T09:51:03;98615.06;;;15.35;28.20
7433;BME280;32233;49.500;7.764;2023-04-06T09:53:31;98613.28;;;15.82;27.86
7433;BME280;32233;49.500;7.764;2023-04-06T09:56:02;98601.56;;;15.18;29.14
7433;BME280;32233;49.500;7.764;2023-04-06T09:58:34;98596.63;;;14.73;29.98
7433;BME280;32233;49.500;7.764;2023-04-06T10:01:10;98602.97;;;16.33;28.67
7433;BME280;32233;49.500;7.764;2023-04-06T10:04:02;98589.28;;;16.18;26.35
7433;BME280;32233;49.500;7.764;2023-04-06T10:06:32;98595.22;;;15.84;26.98
7433;BME280;32233;49.500;7.764;2023-04-06T10:09:02;98589.75;;;16.03;40.01
7433;BME280;32233;49.500;7.764;2023-04-06T10:11:30;98600.56;;;14.52;28.80
7433;BME280;32233;49.500;7.764;2023-04-06T10:13:57;98593.66;;;14.45;29.28
7433;BME280;32233;49.500;7.764;2023-04-06T10:16:25;98592.91;;;15.34;28.15
7433;BME280;32233;49.500;7.764;2023-04-06T10:18:55;98590.41;;;15.09;28.16
7433;BME280;32233;49.500;7.764;2023-04-06T10:21:25;98587.91;;;16.03;28.06
7433;BME280;32233;49.500;7.764;2023-04-06T10:24:07;98577.94;;;15.22;28.25
7433;BME280;32233;49.500;7.764;2023-04-06T10:26:36;98589.25;;;14.20;28.61
7433;BME280;32233;49.500;7.764;2023-04-06T10:29:04;98573.91;;;15.84;27.02
7433;BME280;32233;49.500;7.764;2023-04-06T10:31:31;98586.03;;;16.68;27.72
7433;BME280;32233;49.500;7.764;2023-04-06T10:33:59;98577.25;;;17.24;27.23
7433;BME280;32233;49.500;7.764;2023-04-06T10:36:31;98581.03;;;17.12;28.28
7433;BME280;32233;49.500;7.764;2023-04-06T10:39:00;98595.41;;;17.39;26.57
7433;BME280;32233;49.500;7.764;2023-04-06T10:41:44;98588.31;;;15.53;27.55
7433;BME280;32233;49.500;7.764;2023-04-06T10:44:23;98585.38;;;16.60;27.50
7433;BME280;32233;49.500;7.764;2023-04-06T10:46:59;98585.84;;;17.60;26.87
7433;BME280;32233;49.500;7.764;2023-04-06T10:49:27;98584.56;;;17.00;26.60
7433;BME280;32233;49.500;7.764;2023-04-06T10:51:54;98586.97;;;16.33;25.92
7433;BME280;32233;49.500;7.764;2023-04-06T10:54:24;98586.13;;;16.32;26.61
7433;BME280;32233;49.500;7.764;2023-04-06T10:56:50;98583.81;;;16.36;26.18
7433;BME280;32233;49.500;7.764;2023-04-06T10:59:20;98578.16;;;16.21;26.24
7433;BME280;32233;49.500;7.764;2023-04-06T11:01:48;98575.06;;;16.93;26.64
7433;BME280;32233;49.500;7.764;2023-04-06T11:04:19;98580.19;;;17.40;26.02
7433;BME280;32233;49.500;7.764;2023-04-06T11:06:47;98578.50;;;16.76;26.32
7433;BME280;32233;49.500;7.764;2023-04-06T11:09:28;98567.28;;;17.37;26.98
7433;BME280;32233;49.500;7.764;2023-04-06T11:11:55;98578.53;;;16.13;27.12
7433;BME280;32233;49.500;7.764;2023-04-06T11:14:22;98580.25;;;14.21;28.36
7433;BME280;32233;49.500;7.764;2023-04-06T11:16:49;98569.75;;;14.26;27.98
7433;BME280;32233;49.500;7.764;2023-04-06T11:19:17;98568.47;;;13.74;29.06
7433;BME280;32233;49.500;7.764;2023-04-06T11:21:48;98575.97;;;14.57;27.75
7433;BME280;32233;49.500;7.764;2023-04-06T11:24:17;98569.47;;;16.02;27.20
7433;BME280;32233;49.500;7.764;2023-04-06T11:29:19;98557.50;;;16.16;26.71
7433;BME280;32233;49.500;7.764;2023-04-06T11:31:48;98561.31;;;16.72;26.11
7433;BME280;32233;49.500;7.764;2023-04-06T11:34:19;98553.19;;;17.07;25.43
7433;BME280;32233;49.500;7.764;2023-04-06T11:36:54;98549.88;;;17.17;26.38
7433;BME280;32233;49.500;7.764;2023-04-06T11:39:23;98545.16;;;16.50;24.89
7433;BME280;32233;49.500;7.764;2023-04-06T11:41:51;98548.59;;;16.10;25.21
7433;BME280;32233;49.500;7.764;2023-04-06T11:44:40;98540.44;;;16.69;25.34
7433;BME280;32233;49.500;7.764;2023-04-06T11:47:10;98538.06;;;17.30;26.17
7433;BME280;32233;49.500;7.764;2023-04-06T11:49:38;98533.78;;;17.29;26.12
7433;BME280;32233;49.500;7.764;2023-04-06T11:52:24;98531.63;;;16.97;26.30
7433;BME280;32233;49.500;7.764;2023-04-06T11:54:52;98531.03;;;17.24;27.37
7433;BME280;32233;49.500;7.764;2023-04-06T11:57:21;98528.91;;;16.52;25.03
7433;BME280;32233;49.500;7.764;2023-04-06T11:59:51;98524.16;;;16.02;28.15
7433;BME280;32233;49.500;7.764;2023-04-06T12:02:18;98525.66;;;16.50;26.75
7433;BME280;32233;49.500;7.764;2023-04-06T12:04:45;98524.66;;;16.68;27.36
7433;BME280;32233;49.500;7.764;2023-04-06T12:07:12;98520.75;;;16.18;27.89
7433;BME280;32233;49.500;7.764;2023-04-06T12:09:38;98533.34;;;16.46;27.07
7433;BME280;32233;49.500;7.764;2023-04-06T12:12:05;98527.53;;;17.06;26.59
7433;BME280;32233;49.500;7.764;2023-04-06T12:14:32;98529.72;;;17.26;26.05
7433;BME280;32233;49.500;7.764;2023-04-06T12:16:58;98531.41;;;16.70;26.71
7433;BME280;32233;49.500;7.764;2023-04-06T12:19:25;98529.06;;;17.19;26.79
7433;BME280;32233;49.500;7.764;2023-04-06T12:21:52;98514.50;;;17.44;27.27
7433;BME280;32233;49.500;7.764;2023-04-06T12:24:19;98515.50;;;16.64;28.87
7433;BME280;32233;49.500;7.764;2023-04-06T12:26:46;98530.50;;;16.53;29.20
7433;BME280;32233;49.500;7.764;2023-04-06T12:29:13;98524.97;;;16.02;29.26
7433;BME280;32233;49.500;7.764;2023-04-06T12:31:40;98529.13;;;15.28;30.19
7433;BME280;32233;49.500;7.764;2023-04-06T12:34:11;98519.59;;;15.08;30.20
7433;BME280;32233;49.500;7.764;2023-04-06T12:36:38;98526.00;;;14.89;29.47
7433;BME280;32233;49.500;7.764;2023-04-06T12:39:05;98522.50;;;14.77;30.26
7433;BME280;32233;49.500;7.764;2023-04-06T12:41:32;98519.88;;;14.89;30.60
7433;BME280;32233;49.500;7.764;2023-04-06T12:43:58;98519.88;;;14.40;30.92
7433;BME280;32233;49.500;7.764;2023-04-06T12:46:29;98516.53;;;13.96;31.17
7433;BME280;32233;49.500;7.764;2023-04-06T12:52:18;98521.81;;;13.59;31.66
7433;BME280;32233;49.500;7.764;2023-04-06T12:54:44;98524.38;;;13.16;33.31
7433;BME280;32233;49.500;7.764;2023-04-06T12:57:11;98517.91;;;13.37;32.34
7433;BME280;32233;49.500;7.764;2023-04-06T12:59:37;98520.41;;;13.32;32.57
7433;BME280;32233;49.500;7.764;2023-04-06T13:02:04;98524.66;;;13.08;32.32
7433;BME280;32233;49.500;7.764;2023-04-06T13:04:32;98515.38;;;13.17;32.66
7433;BME280;32233;49.500;7.764;2023-04-06T13:06:58;98520.59;;;12.74;32.46
7433;BME280;32233;49.500;7.764;2023-04-06T13:09:25;98517.72;;;13.07;33.49
7433;BME280;32233;49.500;7.764;2023-04-06T13:11:51;98507.00;;;12.88;32.14
7433;BME280;32233;49.500;7.764;2023-04-06T13:14:18;98516.16;;;12.61;34.71
7433;BME280;32233;49.500;7.764;2023-04-06T13:16:44;98510.81;;;12.68;34.10
7433;BME280;32233;49.500;7.764;2023-04-06T13:19:11;98510.06;;;12.92;34.63
7433;BME280;32233;49.500;7.764;2023-04-06T13:21:39;98509.38;;;13.03;34.98
7433;BME280;32233;49.500;7.764;2023-04-06T13:24:05;98507.66;;;13.16;34.58
7433;BME280;32233;49.500;7.764;2023-04-06T13:26:35;98504.63;;;12.80;34.54
7433;BME280;32233;49.500;7.764;2023-04-06T13:29:02;98503.97;;;12.53;34.43
7433;BME280;32233;49.500;7.764;2023-04-06T13:31:29;98509.28;;;12.85;33.86